Weather at Jeannette Hospital Heliport

Public forecast

Using degrees Fahrenheit for public forecast. Weather courtesy of forecast.io.

Closest aviation weather report (METAR) to Jeannette Hospital Heliport

Closest report is Arnold Palmer Regional Airport, 9.8 nm (18.2 km) ESE.

2022/12/08 11:35 (retrieved 36 minutes ago)

KLBE 081135Z AUTO 00000KT 10SM SCT009 BKN033 06/06 A3032 RMK AO2

Closest aviation forecast (TAF) to Jeannette Hospital Heliport

Closest forecast is Arnold Palmer Regional Airport, 9.8 nm (18.2 km) ESE.

2022/12/08 12:39 (retrieved 0 seconds ago)

TAF KLBE 081136Z 0812/0912 33005KT P6SM OVC025 FM082200 35005KT P6SM OVC035 FM090300 03005KT P6SM BKN035